Date,TemperatureHighF,TemperatureAvgF,TemperatureLowF,DewpointHighF,DewpointAvgF,DewpointLowF,HumidityHigh,HumidityAvg,HumidityLow,PressureMaxIn,PressureMinIn,WindSpeedMaxMPH,WindSpeedAvgMPH,GustSpeedMaxMPH,PrecipitationSumIn
2013-1-1,39,38,36,-54,-54,-55,1,1,1,29.74,29.70,8,4,0,0.00
2013-1-8,39,38,36,-18,-47,-56,8,2,1,30.23,30.21,1,0,0,0.00
2013-1-9,45,43,42,42,-40,-52,98,9,1,30.09,29.98,5,3,0,0.00
2013-1-10,47,40,36,42,-9,-55,98,38,1,30.38,30.09,6,3,0,0.00
2013-1-11,45,44,44,-16,-19,-22,7,6,5,30.10,30.10,2,1,0,0.00
2013-1-13,54,53,52,54,53,52,98,98,98,29.90,29.85,3,1,0,0.04
2013-1-14,57,56,55,57,56,54,98,98,98,29.91,29.86,4,3,0,0.04
2013-1-15,38,36,34,37,-7,-56,98,44,1,30.20,30.04,5,2,0,0.15
2013-1-16,38,36,32,38,36,32,98,98,98,30.04,29.65,4,1,0,0.27
2013-1-17,42,37,34,41,-29,-57,98,20,1,29.93,29.76,6,3,0,0.24
2013-1-18,34,28,24,26,-49,-63,97,8,1,30.32,29.82,8,3,0,0.00
2013-1-20,40,34,28,-53,-57,-61,1,1,1,29.87,29.72,9,5,0,0.00
2013-1-21,28,28,28,-60,-60,-61,1,1,1,29.86,29.69,6,4,0,0.00
2013-1-24,18,16,15,-67,-68,-69,1,1,1,30.22,30.19,8,6,0,0.01
2013-1-25,18,16,15,-67,-68,-69,1,1,1,29.94,29.91,0,0,0,0.00
2013-1-26,26,23,18,-62,-64,-66,1,1,1,30.19,29.95,8,5,0,0.00
2013-1-27,34,32,28,-57,-58,-60,1,1,1,30.34,30.29,6,3,0,0.00
2013-1-28,37,31,24,36,4,-62,98,67,1,30.30,29.84,3,1,0,0.11
2013-1-29,51,44,37,50,44,36,98,98,98,29.98,29.84,3,1,0,0.10
2013-1-30,65,64,64,64,53,24,98,73,21,29.45,29.41,5,4,0,0.01
2013-1-31,38,31,27,19,-55,-61,62,4,1,29.62,29.38,9,5,0,0.00
2013-2-1,31,26,20,26,-45,-65,98,17,1,30.06,29.62,10,4,0,0.00
2013-2-2,28,22,16,24,-36,-68,98,30,1,30.13,29.91,6,2,0,0.00
2013-2-3,30,27,23,22,-41,-64,74,11,1,29.64,29.62,5,2,0,0.01
2013-2-4,28,25,19,25,-49,-66,98,14,1,29.82,29.74,11,3,0,0.00
2013-2-5,31,28,25,31,-9,-63,98,53,1,29.80,29.71,4,1,0,0.00
2013-2-6,38,32,26,36,-14,-62,98,46,1,30.19,29.74,7,2,0,0.04
2013-2-7,33,27,20,27,-44,-65,98,16,1,30.33,30.15,4,1,0,0.00
2013-2-8,37,33,30,36,11,-60,98,72,1,30.14,29.47,8,4,0,0.01
2013-2-9,36,28,18,35,-30,-67,98,31,1,30.18,29.58,13,5,0,0.00
2013-2-10,37,24,12,17,-56,-71,98,8,1,30.24,30.15,7,3,0,0.20
2013-2-11,53,40,28,53,18,-61,98,74,1,30.16,29.49,4,0,0,0.57
2013-2-12,49,38,31,48,-23,-59,98,28,1,29.81,29.57,10,4,0,0.01
2013-2-13,45,35,27,40,-34,-61,98,23,1,29.79,29.51,5,1,0,0.00
2013-2-14,43,40,36,42,10,-56,98,64,1,29.83,29.53,4,1,0,0.09
2013-2-15,43,35,33,36,-4,-57,98,54,1,29.85,29.81,5,2,0,0.00
2013-2-16,42,36,28,41,-4,-60,98,51,1,29.81,29.57,8,4,0,0.04
2013-2-17,30,25,16,-53,-62,-68,2,1,1,29.84,29.51,13,7,0,0.00
2013-2-18,35,28,15,-56,-61,-69,1,1,1,30.10,29.85,8,3,0,0.00
2013-2-19,44,29,24,39,-33,-63,98,26,1,30.03,29.56,5,1,0,0.01
2013-2-20,34,30,28,28,-38,-61,98,19,1,29.73,29.57,7,4,0,0.00
2013-2-21,33,30,26,-57,-59,-62,1,1,1,30.07,29.83,13,7,0,0.00
2013-2-22,38,31,22,36,-26,-64,98,32,1,30.24,30.09,5,1,0,0.00
2013-2-23,52,46,34,52,46,34,98,98,98,30.11,29.63,7,1,0,0.33
2013-2-24,52,43,31,52,-5,-59,98,47,1,29.82,29.59,7,4,0,0.02
2013-2-25,42,33,29,41,-49,-60,98,8,1,30.00,29.77,7,3,0,0.00
2013-3-18,32,32,32,32,1,-58,98,63,1,30.08,29.96,5,3,0,0.00
2013-3-19,49,45,36,48,35,-56,98,88,1,29.80,29.53,5,3,0,1.05
2013-3-20,44,34,30,33,-40,-60,98,16,1,29.73,29.63,9,3,0,0.00
2013-3-21,39,33,28,36,-32,-60,98,24,1,29.66,29.45,7,4,0,0.00
2013-3-22,41,36,26,34,-41,-62,98,14,1,29.72,29.56,8,4,0,0.00
2013-3-23,44,34,30,36,-40,-59,98,11,1,29.77,29.70,10,4,0,0.00
2013-3-24,43,34,29,35,-43,-60,98,13,1,29.79,29.53,8,3,0,0.00
2013-3-25,38,37,35,37,-11,-56,98,41,1,29.53,29.33,5,2,0,0.01
2013-4-3,39,36,34,-54,-55,-57,1,1,1,30.00,29.99,6,4,0,0.00
2013-4-6,42,42,42,-52,-52,-52,1,1,1,30.13,30.13,2,2,0,0.00
2013-4-7,65,55,37,28,-31,-55,41,6,1,30.13,29.84,6,2,0,0.00
2013-4-8,61,57,50,51,-12,-43,77,25,1,29.92,29.88,3,2,0,0.00
2013-4-10,70,66,63,-35,-37,-39,1,1,1,29.67,29.65,5,4,0,0.00
2013-4-11,58,54,52,54,39,-42,98,84,1,29.81,29.77,4,3,0,0.00
2013-4-13,59,56,55,1,-32,-43,11,3,1,29.73,29.70,8,5,0,0.00
2013-4-14,59,56,52,-42,-43,-46,1,1,1,29.99,29.89,8,5,0,0.00
2013-4-16,70,68,63,-35,-36,-39,1,1,1,30.10,29.95,8,4,0,0.00
2013-4-17,72,62,52,59,-24,-45,98,14,1,30.14,29.98,7,2,0,0.01
2013-4-18,52,51,50,-46,-46,-47,1,1,1,30.15,30.13,2,1,0,0.00
2013-4-19,75,70,60,74,66,-33,98,94,1,29.77,29.46,6,3,0,0.26
2013-4-20,59,58,58,59,58,57,98,98,98,29.55,29.54,5,4,0,0.00
2013-4-22,44,42,39,-33,-47,-54,3,2,1,30.48,30.47,3,2,0,0.00
2013-4-24,74,64,58,73,11,-40,98,48,1,29.71,29.64,5,2,0,0.00
2013-4-25,67,58,51,-37,-42,-46,1,1,1,30.12,29.77,9,2,0,0.00
2013-4-27,65,64,64,-38,-38,-38,1,1,1,30.24,30.23,4,2,0,0.00
2013-4-28,64,63,63,-38,-39,-39,1,1,1,30.05,30.03,2,2,0,0.00
2013-4-30,70,64,54,-34,-39,-45,1,1,1,30.16,30.11,4,2,0,0.01
2013-5-1,75,66,55,60,-23,-44,98,11,1,30.31,30.27,8,3,0,0.00
2013-5-2,74,73,72,-32,-33,-34,1,1,1,30.19,30.17,3,2,0,0.00
2013-5-21,88,79,74,74,15,-30,98,36,1,29.72,29.68,3,1,0,0.00
2013-5-22,82,75,67,82,74,66,99,99,98,29.76,29.67,5,1,0,0.00
2013-5-23,75,74,74,75,74,73,98,98,98,29.66,29.62,3,2,0,0.00
2013-5-29,88,84,80,87,23,-29,98,37,1,29.90,29.85,6,2,0,0.00
2013-5-30,91,87,85,26,-14,-25,12,3,1,29.94,29.91,5,2,0,0.00
2013-5-31,92,90,87,-22,-23,-25,1,1,1,29.91,29.86,5,2,0,0.00
2013-6-1,91,82,71,90,24,-30,98,46,1,29.90,29.79,9,3,0,0.00
2013-6-2,86,78,71,75,24,-30,98,46,1,29.73,29.69,7,3,0,0.00
2013-7-27,81,81,81,-28,-28,-28,1,1,1,29.87,29.87,3,3,0,0.00
2013-9-12,84,76,71,71,37,-32,98,60,1,29.61,29.56,4,2,0,0.08
2013-9-13,75,67,57,74,24,-42,98,48,1,29.70,29.48,6,3,0,0.07
2013-9-14,64,59,52,63,32,-44,98,66,1,29.87,29.71,5,3,0,0.00